Baldur, Canada
Current Conditions -  °F | °C
As of 4:35 AM on Monday 26 Jan 2015 (Local Time) from K06D Reporting Station
Clear Clear  
Wind Chill: 30°   Ceiling: Unl
Heat Index: 39°   Visibility: 10mi
Dew Point: 32°   Wind: 20mph
Humidity: 75%   Direction: 310°NW
Pressure: 29.69"   Gusts: 29mph
Location:  49.38°N, 99.23°W
Report Text: K06D 261035Z AUTO 31017G25KT 10SM CLR 04/00 A2969 RMK AO2
Loading
Personal Weather Stations






























Interactive Weather Map New forecast layout! Learn more

10-Day Weather Forecast

Advertisements
Track Severe Weather on mobile